Favola — IBFH — position and weather

sailwx.info

Track history (hours):
 
Tides and Currents Weather Stations Pressure Air Temp Water Temp Dewpoint Dewpoint Depression Visibility Wind Speed Wind Dir Waves Ship Positions

Favola

Last reported at 2017-Sep-22 01:55 UTC. Time now 2017-Sep-25 10:02 UTC.
Position N 01°14' E 103°48'.

Length 180 m; draft 7 m.

Type: Ship (hazmat cat A). MMSI: 247069800.

Date/timePositionNaut miles runAvg speedWind from/ knotsBaromVisibWave heightAir tempDewpointWater temp
2017-Sep-22 01:55N 01°14' E 103°48'0 0.0
2017-Sep-22 01:19N 01°14' E 103°48'0 0.0
2017-Sep-22 00:46N 01°14' E 103°48'0 0.0
2017-Sep-22 00:28N 01°14' E 103°48'0 0.1
2017-Sep-21 23:58N 01°14' E 103°48'0 0.1
2017-Sep-21 23:25N 01°14' E 103°48'0 0.0
2017-Sep-21 22:58N 01°14' E 103°48'0 0.0
2017-Sep-21 22:28N 01°14' E 103°48'0 0.0
2017-Sep-21 21:58N 01°14' E 103°48'0 0.0
2017-Sep-21 21:28N 01°14' E 103°48'0 0.0
2017-Sep-21 20:58N 01°14' E 103°48'3 5.4
2017-Sep-21 20:29N 01°12' E 103°51'1 2.4
2017-Sep-21 20:00N 01°13' E 103°52'1 2.6
2017-Sep-21 19:29N 01°14' E 103°53'1 2.7
2017-Sep-21 19:00N 01°14' E 103°54'5 7.9
2017-Sep-21 18:26N 01°12' E 103°58'0 0.9
2017-Sep-21 18:00N 01°12' E 103°57'0 0.7
2017-Sep-21 17:29N 01°12' E 103°57'0 0.7
2017-Sep-21 16:59N 01°11' E 103°57'0 0.9
2017-Sep-21 16:30N 01°11' E 103°56'916.2
2017-Sep-21 15:58N 01°14' E 103°48'0 0.0
2017-Sep-21 15:28N 01°14' E 103°48'0 0.1
2017-Sep-21 14:58N 01°14' E 103°48'0 0.1
2017-Sep-21 14:28N 01°14' E 103°48'1015.0
2017-Sep-21 13:48N 01°12' E 103°58'0 1.0
2017-Sep-21 13:28N 01°12' E 103°58'1 1.7
2017-Sep-21 13:00N 01°11' E 103°57'1 1.8
2017-Sep-21 12:30N 01°11' E 103°57'1 1.1
2017-Sep-21 12:00N 01°10' E 103°56'915.9
2017-Sep-21 11:28N 01°14' E 103°48'0 0.1
2017-Sep-21 10:49N 01°14' E 103°48'0 0.6
2017-Sep-21 10:30N 01°14' E 103°49'3 6.3
2017-Sep-21 10:00N 01°13' E 103°51'611.1
2017-Sep-21 09:30N 01°15' E 103°57'3 6.4
2017-Sep-21 09:00N 01°15' E 103°60'2 5.0
2017-Sep-21 08:30N 01°13' E 103°59'2 3.5
2017-Sep-21 08:00N 01°12' E 103°58'2 3.1
2017-Sep-21 07:30N 01°11' E 103°56'1 1.6
2017-Sep-21 07:00N 01°12' E 103°56'2 4.0
2017-Sep-21 06:30N 01°12' E 103°58'5 9.0
2017-Sep-21 05:56N 01°13' E 104°03'4 9.0
2017-Sep-21 05:30N 01°13' E 104°07'7 3.8
2017-Sep-21 03:42N 01°14' E 104°00'1 7.5
2017-Sep-21 03:31N 01°13' E 103°59'3 6.0
2017-Sep-21 03:00N 01°11' E 103°57'2 3.5
2017-Sep-21 02:31N 01°10' E 103°55'3 6.5
2017-Sep-21 02:00N 01°07' E 103°54'2 4.0
2017-Sep-21 01:31N 01°05' E 103°53'0 0.4
2017-Sep-21 00:51N 01°05' E 103°54'0 0.0
2017-Sep-21 00:27N 01°05' E 103°54'0 0.0
2017-Sep-20 23:57N 01°05' E 103°54'0 0.0
2017-Sep-20 23:27N 01°05' E 103°54'0 0.0
2017-Sep-20 22:57N 01°05' E 103°54'0 0.0
2017-Sep-20 22:24N 01°05' E 103°54'0 0.0
2017-Sep-20 21:54N 01°05' E 103°54'0 0.0
2017-Sep-20 21:30N 01°05' E 103°54'0 0.0
2017-Sep-20 20:57N 01°05' E 103°54'0 0.0
2017-Sep-20 20:24N 01°05' E 103°54'0 0.0
2017-Sep-20 19:57N 01°05' E 103°54'0 0.0
2017-Sep-20 19:30N 01°05' E 103°54'0 0.0
2017-Sep-20 18:57N 01°05' E 103°54'0 0.0
2017-Sep-20 18:24N 01°05' E 103°54'0 0.0
2017-Sep-20 17:57N 01°05' E 103°54'0 0.0
2017-Sep-20 17:30N 01°05' E 103°54'0 0.0
2017-Sep-20 16:57N 01°05' E 103°54'0 0.0
2017-Sep-20 16:14N 01°05' E 103°54'0 0.0
2017-Sep-20 15:56N 01°05' E 103°54'0 0.0
2017-Sep-20 15:29N 01°05' E 103°54'0 0.0
2017-Sep-20 14:56N 01°05' E 103°54'0 0.0
2017-Sep-20 13:56N 01°05' E 103°54'0 0.0
2017-Sep-20 13:23N 01°05' E 103°54'0 0.0
2017-Sep-20 12:50N 01°05' E 103°54'0 0.0
2017-Sep-20 12:29N 01°05' E 103°54'0 0.0
2017-Sep-20 11:50N 01°05' E 103°54'0 0.0
2017-Sep-20 11:23N 01°05' E 103°54'0 0.0
2017-Sep-20 10:47N 01°05' E 103°54'0 0.0
2017-Sep-20 10:29N 01°05' E 103°54'0 0.0
2017-Sep-20 09:53N 01°05' E 103°54'0 0.0
2017-Sep-20 09:23N 01°05' E 103°54'0 0.0
2017-Sep-20 08:44N 01°05' E 103°54'0 0.0
2017-Sep-20 08:20N 01°05' E 103°54'0 0.0
2017-Sep-20 07:23N 01°05' E 103°54'0 0.0
2017-Sep-20 06:50N 01°05' E 103°54'0 0.0
2017-Sep-20 06:29N 01°05' E 103°54'0 0.0
2017-Sep-20 05:44N 01°05' E 103°54'0 0.0
2017-Sep-20 05:26N 01°05' E 103°54'0 0.0
2017-Sep-20 04:47N 01°05' E 103°54'0 0.0
2017-Sep-20 03:56N 01°05' E 103°54'0 0.0
2017-Sep-20 03:17N 01°05' E 103°54'0 0.0
2017-Sep-20 02:50N 01°05' E 103°54'0 0.0
2017-Sep-20 02:29N 01°05' E 103°54'0 0.0
2017-Sep-20 01:59N 01°05' E 103°54'0 0.0
2017-Sep-20 01:29N 01°05' E 103°54'0 0.0
2017-Sep-20 00:53N 01°05' E 103°54'0 0.0
2017-Sep-20 00:29N 01°05' E 103°54'0 0.0
2017-Sep-19 23:50N 01°05' E 103°54'0 0.0
2017-Sep-19 23:26N 01°05' E 103°54'0 0.0
2017-Sep-19 22:47N 01°05' E 103°54'0 0.0
2017-Sep-19 22:23N 01°05' E 103°54'0 0.0
2017-Sep-19 21:59N 01°05' E 103°54'0 0.0
2017-Sep-19 21:29N 01°05' E 103°54'0 0.0
2017-Sep-19 20:59N 01°05' E 103°54'0 0.0
2017-Sep-19 19:47N 01°05' E 103°54'0 0.0
2017-Sep-19 19:20N 01°05' E 103°54'0 0.0
2017-Sep-19 18:59N 01°05' E 103°54'0 0.0
2017-Sep-19 18:29N 01°05' E 103°54'0 0.0
2017-Sep-19 17:59N 01°05' E 103°54'0 0.0
2017-Sep-19 17:29N 01°05' E 103°54'0 0.0
2017-Sep-19 16:54N 01°05' E 103°54'0 0.0
2017-Sep-19 16:20N 01°05' E 103°54'0 0.0
2017-Sep-19 15:53N 01°05' E 103°54'0 0.0
2017-Sep-19 15:20N 01°05' E 103°54'0 0.0
2017-Sep-19 14:47N 01°05' E 103°54'0 0.0
2017-Sep-19 14:20N 01°05' E 103°54'0 0.0
2017-Sep-19 13:56N 01°05' E 103°54'0 0.0
2017-Sep-19 13:26N 01°05' E 103°54'0 0.0
2017-Sep-19 12:53N 01°05' E 103°54'0 0.0
2017-Sep-19 12:02N 01°05' E 103°54'0 0.0
2017-Sep-19 11:59N 01°05' E 103°54'0 0.0
2017-Sep-19 11:23N 01°05' E 103°54'0 0.0
2017-Sep-19 10:47N 01°05' E 103°54'0 0.0
2017-Sep-19 10:29N 01°05' E 103°54'0 0.0
2017-Sep-19 09:29N 01°05' E 103°54'0 0.0
2017-Sep-19 07:59N 01°05' E 103°54'0 0.0
2017-Sep-19 07:23N 01°05' E 103°54'0 0.0
2017-Sep-19 06:47N 01°05' E 103°54'0 0.0
2017-Sep-19 06:29N 01°05' E 103°54'0 0.0
2017-Sep-19 05:59N 01°05' E 103°54'0 0.0
2017-Sep-19 05:26N 01°05' E 103°54'0 0.0
2017-Sep-19 04:59N 01°05' E 103°54'0 0.0
2017-Sep-19 04:20N 01°05' E 103°54'0 0.0
2017-Sep-19 03:58N 01°05' E 103°54'0 0.0
2017-Sep-19 03:16N 01°05' E 103°54'0 0.0
2017-Sep-19 02:13N 01°05' E 103°54'0 0.0
2017-Sep-19 01:55N 01°05' E 103°54'0 0.0
2017-Sep-19 01:28N 01°05' E 103°54'0 0.0
2017-Sep-19 00:37N 01°05' E 103°54'0 0.0
2017-Sep-19 00:25N 01°05' E 103°54'0 0.0
2017-Sep-18 23:13N 01°05' E 103°54'0 0.0
2017-Sep-18 22:58N 01°05' E 103°54'0 0.0
2017-Sep-18 22:25N 01°05' E 103°54'0 0.0
2017-Sep-18 21:46N 01°05' E 103°54'0 0.0
2017-Sep-18 21:22N 01°05' E 103°54'0 0.0
2017-Sep-18 20:40N 01°05' E 103°54'0 0.0
2017-Sep-18 20:28N 01°05' E 103°54'0 0.0
2017-Sep-18 19:58N 01°05' E 103°54'0 0.0
2017-Sep-18 19:25N 01°05' E 103°54'0 0.0
2017-Sep-18 18:52N 01°05' E 103°54'0 0.0
2017-Sep-18 18:16N 01°05' E 103°54'0 0.0
2017-Sep-18 17:55N 01°05' E 103°54'0 0.0
2017-Sep-18 17:25N 01°05' E 103°54'0 0.0
2017-Sep-18 16:58N 01°05' E 103°54'0 0.0
2017-Sep-18 16:16N 01°05' E 103°54'0 0.0
2017-Sep-18 15:58N 01°05' E 103°54'0 0.0
2017-Sep-18 15:10N 01°05' E 103°54'0 0.0
2017-Sep-18 14:55N 01°05' E 103°54'0 0.0
2017-Sep-18 14:10N 01°05' E 103°54'0 0.0
2017-Sep-18 13:55N 01°05' E 103°54'0 0.0
2017-Sep-18 13:28N 01°05' E 103°54'0 0.0
2017-Sep-18 12:58N 01°05' E 103°54'0 0.0
2017-Sep-18 12:22N 01°05' E 103°54'0 0.0
2017-Sep-18 11:58N 01°05' E 103°54'0 0.0
2017-Sep-18 11:28N 01°05' E 103°54'0 0.0
2017-Sep-18 10:58N 01°05' E 103°54'0 0.0
2017-Sep-18 10:22N 01°05' E 103°54'0 0.0
2017-Sep-18 09:58N 01°05' E 103°54'0 0.0
2017-Sep-18 08:58N 01°05' E 103°54'0 0.0
2017-Sep-18 06:43N 01°05' E 103°54'0 0.0
2017-Sep-18 06:25N 01°05' E 103°54'0 0.0
2017-Sep-18 05:58N 01°05' E 103°54'0 0.0
2017-Sep-18 05:28N 01°05' E 103°54'0 0.0
2017-Sep-18 04:16N 01°05' E 103°54'0 0.0
2017-Sep-18 03:40N 01°05' E 103°54'0 0.0
2017-Sep-18 03:19N 01°05' E 103°54'0 0.0
2017-Sep-18 02:37N 01°05' E 103°54'0 0.0
2017-Sep-18 02:22N 01°05' E 103°54'0 0.0
2017-Sep-18 01:49N 01°05' E 103°54'0 0.0
2017-Sep-18 01:28N 01°05' E 103°54'0 0.0
2017-Sep-17 23:10N 01°05' E 103°54'0 0.0
2017-Sep-17 22:01N 01°05' E 103°54'0 0.0
2017-Sep-17 21:49N 01°05' E 103°54'0 0.0
2017-Sep-17 21:10N 01°05' E 103°54'0 0.0
2017-Sep-17 20:55N 01°05' E 103°54'0 0.0
2017-Sep-17 20:13N 01°05' E 103°54'0 0.0
2017-Sep-17 19:58N 01°05' E 103°54'0 0.0
2017-Sep-17 19:19N 01°05' E 103°54'0 0.0
2017-Sep-17 18:58N 01°05' E 103°54'0 0.0
2017-Sep-17 18:25N 01°05' E 103°54'0 0.0
2017-Sep-17 17:37N 01°05' E 103°54'0 0.0
2017-Sep-17 17:19N 01°05' E 103°54'0 0.0
2017-Sep-17 16:40N 01°05' E 103°54'0 0.0
2017-Sep-17 15:52N 01°05' E 103°54'0 0.0
2017-Sep-17 15:25N 01°05' E 103°54'0 0.0
2017-Sep-17 15:00N 01°05' E 103°54'0 0.0
2017-Sep-17 14:12N 01°05' E 103°54'0 0.0
2017-Sep-17 13:54N 01°05' E 103°54'0 0.0
2017-Sep-17 13:24N 01°05' E 103°54'0 0.0
2017-Sep-17 12:54N 01°05' E 103°54'0 0.0
2017-Sep-17 12:24N 01°05' E 103°54'0 0.0
2017-Sep-17 11:18N 01°05' E 103°54'0 0.0
2017-Sep-17 10:48N 01°05' E 103°54'0 0.0
2017-Sep-17 10:24N 01°05' E 103°54'0 0.0
2017-Sep-17 07:27N 01°05' E 103°54'0 0.0
2017-Sep-17 06:54N 01°05' E 103°54'0 0.0
2017-Sep-17 05:21N 01°05' E 103°54'0 0.0
2017-Sep-17 04:54N 01°05' E 103°54'0 0.0
2017-Sep-17 04:15N 01°05' E 103°54'0 0.0
2017-Sep-17 03:48N 01°05' E 103°54'0 0.0
2017-Sep-17 03:09N 01°05' E 103°54'0 0.0
2017-Sep-17 02:57N 01°05' E 103°54'0 0.0
2017-Sep-17 01:18N 01°05' E 103°54'0 0.0
2017-Sep-17 00:54N 01°05' E 103°54'0 0.0
2017-Sep-17 00:03N 01°05' E 103°54'0 0.0
2017-Sep-16 23:54N 01°05' E 103°54'0 0.0
2017-Sep-16 23:30N 01°05' E 103°54'0 0.0
2017-Sep-16 22:54N 01°05' E 103°54'0 0.0
2017-Sep-16 22:27N 01°05' E 103°54'0 0.0
2017-Sep-16 21:57N 01°05' E 103°54'0 0.0
2017-Sep-16 20:42N 01°05' E 103°54'0 0.0
2017-Sep-16 20:27N 01°05' E 103°54'0 0.0
2017-Sep-16 19:39N 01°05' E 103°54'0 0.0
2017-Sep-16 19:21N 01°05' E 103°54'0 0.0
2017-Sep-16 18:03N 01°05' E 103°54'0 0.0
2017-Sep-16 17:33N 01°05' E 103°54'0 0.0
2017-Sep-16 17:15N 01°05' E 103°54'0 0.0
2017-Sep-16 16:51N 01°05' E 103°54'0 0.0
2017-Sep-16 16:21N 01°05' E 103°54'0 0.0
2017-Sep-16 15:57N 01°05' E 103°54'0 0.0
2017-Sep-16 15:30N 01°05' E 103°54'0 0.0
2017-Sep-16 15:00N 01°05' E 103°54'0 0.0
2017-Sep-16 14:24N 01°05' E 103°54'0 0.0
2017-Sep-16 13:57N 01°05' E 103°54'0 0.0
2017-Sep-16 13:27N 01°05' E 103°54'0 0.0
2017-Sep-16 12:57N 01°05' E 103°54'0 0.0
2017-Sep-16 12:24N 01°05' E 103°54'0 0.0
2017-Sep-16 11:54N 01°05' E 103°54'0 0.0
2017-Sep-16 11:27N 01°05' E 103°54'0 0.0
2017-Sep-16 10:57N 01°05' E 103°54'0 0.0
2017-Sep-16 10:27N 01°05' E 103°54'0 0.0
2017-Sep-16 09:51N 01°05' E 103°54'0 0.0
2017-Sep-16 09:27N 01°05' E 103°54'0 0.0
2017-Sep-16 08:51N 01°05' E 103°54'0 0.0
2017-Sep-16 08:30N 01°05' E 103°54'0 0.0
2017-Sep-16 07:54N 01°05' E 103°54'0 0.0
2017-Sep-16 07:18N 01°05' E 103°54'0 0.0
2017-Sep-16 06:57N 01°05' E 103°54'0 0.0
2017-Sep-16 06:27N 01°05' E 103°54'0 0.0
2017-Sep-16 05:57N 01°05' E 103°54'0 0.0
2017-Sep-16 05:21N 01°05' E 103°54'0 0.0
2017-Sep-16 04:45N 01°05' E 103°54'0 0.0
2017-Sep-16 03:39N 01°05' E 103°54'0 0.0
2017-Sep-16 03:09N 01°05' E 103°54'0 0.0
2017-Sep-16 02:56N 01°05' E 103°54'0 0.0
2017-Sep-16 02:30N 01°05' E 103°54'0 0.0
2017-Sep-16 01:50N 01°05' E 103°54'0 0.0
2017-Sep-16 01:26N 01°05' E 103°54'0 0.0
2017-Sep-15 23:29N 01°05' E 103°54'0 0.0
2017-Sep-15 22:47N 01°05' E 103°54'0 0.0
2017-Sep-15 22:17N 01°05' E 103°54'0 0.0
2017-Sep-15 21:47N 01°05' E 103°54'0 0.0
2017-Sep-15 21:20N 01°05' E 103°54'0 0.0
2017-Sep-15 20:56N 01°05' E 103°54'0 0.0
2017-Sep-15 19:41N 01°05' E 103°54'0 0.0
2017-Sep-15 19:29N 01°05' E 103°54'0 0.0
2017-Sep-15 18:08N 01°05' E 103°54'0 0.0
2017-Sep-15 17:53N 01°05' E 103°54'0 0.0
2017-Sep-15 17:23N 01°05' E 103°54'0 0.0
2017-Sep-15 16:56N 01°05' E 103°54'0 0.0
2017-Sep-15 15:44N 01°05' E 103°54'0 0.0
2017-Sep-15 15:17N 01°05' E 103°54'0 0.0
2017-Sep-15 14:05N 01°05' E 103°54'0 0.0
2017-Sep-15 13:50N 01°05' E 103°54'0 0.0
2017-Sep-15 13:23N 01°05' E 103°54'0 0.0
2017-Sep-15 12:41N 01°05' E 103°54'0 0.0
2017-Sep-15 11:56N 01°05' E 103°54'0 0.0
2017-Sep-15 11:26N 01°05' E 103°54'0 0.0
2017-Sep-15 10:56N 01°05' E 103°54'0 0.0
2017-Sep-15 10:02N 01°05' E 103°54'0 0.0
2017-Sep-15 09:56N 01°05' E 103°54'0 0.0
2017-Sep-15 09:23N 01°05' E 103°54'0 0.0
2017-Sep-15 08:53N 01°05' E 103°54'0 0.0
2017-Sep-15 07:02N 01°05' E 103°54'0 0.0
2017-Sep-15 06:50N 01°05' E 103°54'0 0.0
2017-Sep-15 06:26N 01°05' E 103°54'0 0.0
2017-Sep-15 05:05N 01°05' E 103°54'0 0.0
2017-Sep-15 04:59N 01°05' E 103°54'0 0.0
2017-Sep-15 04:23N 01°05' E 103°54'0 0.0
2017-Sep-15 03:29N 01°05' E 103°54'0 0.0
2017-Sep-15 02:53N 01°05' E 103°54'0 0.0
2017-Sep-15 02:29N 01°05' E 103°54'0 0.0
2017-Sep-15 01:56N 01°05' E 103°54'0 0.0
2017-Sep-15 01:29N 01°05' E 103°54'0 0.0
2017-Sep-15 00:47N 01°05' E 103°54'0 0.0
2017-Sep-13 15:22N 01°05' E 103°54'0 0.0
2017-Sep-13 14:49N 01°05' E 103°54'0 0.0
2017-Sep-13 14:25N 01°05' E 103°54'0 0.0
2017-Sep-13 11:16N 01°05' E 103°54'0 0.0
2017-Sep-13 10:04N 01°05' E 103°54'0 0.0
2017-Sep-13 09:58N 01°05' E 103°54'0 0.0
2017-Sep-13 08:22N 01°05' E 103°54'0 0.0
2017-Sep-13 07:55N 01°05' E 103°54'0 0.0
2017-Sep-13 07:04N 01°05' E 103°54'0 0.0
2017-Sep-13 06:37N 01°05' E 103°54'0 0.0
2017-Sep-13 06:28N 01°05' E 103°54'0 0.0
2017-Sep-13 05:55N 01°05' E 103°54'0 0.0
2017-Sep-13 05:22N 01°05' E 103°54'0 0.0
2017-Sep-13 04:49N 01°05' E 103°54'0 0.0
2017-Sep-13 04:28N 01°05' E 103°54'0 0.0
2017-Sep-13 03:55N 01°05' E 103°54'0 0.0
2017-Sep-13 03:16N 01°05' E 103°54'0 0.0
2017-Sep-13 02:58N 01°05' E 103°54'0 0.0
2017-Sep-13 02:28N 01°05' E 103°54'0 0.0
2017-Sep-13 01:52N 01°05' E 103°54'0 0.0
2017-Sep-13 01:31N 01°05' E 103°54'0 0.0
2017-Sep-13 00:45N 01°05' E 103°54'0 0.0
2017-Sep-13 00:15N 01°05' E 103°54'0 0.0
2017-Sep-12 23:51N 01°05' E 103°54'0 0.0
2017-Sep-12 23:30N 01°05' E 103°54'0 0.0
2017-Sep-12 23:00N 01°05' E 103°54'0 0.0
2017-Sep-12 22:27N 01°05' E 103°54'0 0.0
2017-Sep-12 21:57N 01°05' E 103°54'0 0.0
2017-Sep-12 21:03N 01°05' E 103°54'0 0.0
2017-Sep-12 20:48N 01°05' E 103°54'0 0.0
2017-Sep-12 20:27N 01°05' E 103°54'0 0.0
2017-Sep-12 19:51N 01°05' E 103°54'0 0.0
2017-Sep-12 19:24N 01°05' E 103°54'0 0.0
2017-Sep-12 18:54N 01°05' E 103°54'0 0.0
2017-Sep-12 18:30N 01°05' E 103°54'0 0.0
2017-Sep-12 17:45N 01°05' E 103°54'0 0.0
2017-Sep-12 17:30N 01°05' E 103°54'0 0.0
2017-Sep-12 16:18N 01°05' E 103°54'0 0.0
2017-Sep-12 15:57N 01°05' E 103°54'0 0.0
2017-Sep-12 15:30N 01°05' E 103°54'0 0.0
2017-Sep-12 14:42N 01°05' E 103°54'0 0.0
2017-Sep-12 14:27N 01°05' E 103°54'0 0.0
2017-Sep-12 13:33N 01°05' E 103°54'0 0.0
2017-Sep-12 13:30N 01°05' E 103°54'0 0.0
2017-Sep-12 12:48N 01°05' E 103°54'0 0.0
2017-Sep-12 12:30N 01°05' E 103°54'0 0.0
2017-Sep-12 11:57N 01°05' E 103°54'0 0.0
2017-Sep-12 11:30N 01°05' E 103°54'0 0.0
2017-Sep-12 10:54N 01°05' E 103°54'0 0.0
2017-Sep-12 10:24N 01°05' E 103°54'0 0.0
2017-Sep-12 09:57N 01°05' E 103°54'0 0.0
2017-Sep-12 09:21N 01°05' E 103°54'0 0.0
2017-Sep-12 08:45N 01°05' E 103°54'0 0.0
2017-Sep-12 08:30N 01°05' E 103°54'0 0.0
2017-Sep-12 07:48N 01°05' E 103°54'0 0.0
2017-Sep-12 07:30N 01°05' E 103°54'0 0.0
2017-Sep-12 06:54N 01°05' E 103°54'0 0.0
2017-Sep-12 06:18N 01°05' E 103°54'0 0.0
2017-Sep-12 05:54N 01°05' E 103°54'0 0.0
2017-Sep-12 05:15N 01°05' E 103°54'0 0.0
2017-Sep-12 04:57N 01°05' E 103°54'0 0.0
2017-Sep-12 04:24N 01°05' E 103°54'0 0.0
2017-Sep-12 03:57N 01°05' E 103°54'0 0.0
2017-Sep-12 03:27N 01°05' E 103°54'0 0.0
2017-Sep-12 02:57N 01°05' E 103°54'0 0.0
2017-Sep-12 02:24N 01°05' E 103°54'0 0.0
2017-Sep-12 01:57N 01°05' E 103°54'  
Track history (hours):
 
Tides and Currents Weather Stations Pressure Air Temp Water Temp Dewpoint Dewpoint Depression Visibility Wind Speed Wind Dir Waves Ship Positions

Favola

Last reported at 2017-Sep-22 01:55 UTC. Time now 2017-Sep-25 10:02 UTC.
Position N 01°14' E 103°48'.

Length 180 m; draft 7 m.

Type: Ship (hazmat cat A). MMSI: 247069800.

Date/timePositionNaut miles runAvg speedWind from/ knotsBaromVisibWave heightAir tempDewpointWater temp
2017-Sep-22 01:55N 01°14' E 103°48'0 0.0
2017-Sep-22 01:19N 01°14' E 103°48'0 0.0
2017-Sep-22 00:46N 01°14' E 103°48'0 0.0
2017-Sep-22 00:28N 01°14' E 103°48'0 0.1
2017-Sep-21 23:58N 01°14' E 103°48'0 0.1
2017-Sep-21 23:25N 01°14' E 103°48'0 0.0
2017-Sep-21 22:58N 01°14' E 103°48'0 0.0
2017-Sep-21 22:28N 01°14' E 103°48'0 0.0
2017-Sep-21 21:58N 01°14' E 103°48'0 0.0
2017-Sep-21 21:28N 01°14' E 103°48'0 0.0
2017-Sep-21 20:58N 01°14' E 103°48'3 5.4
2017-Sep-21 20:29N 01°12' E 103°51'1 2.4
2017-Sep-21 20:00N 01°13' E 103°52'1 2.6
2017-Sep-21 19:29N 01°14' E 103°53'1 2.7
2017-Sep-21 19:00N 01°14' E 103°54'5 7.9
2017-Sep-21 18:26N 01°12' E 103°58'0 0.9
2017-Sep-21 18:00N 01°12' E 103°57'0 0.7
2017-Sep-21 17:29N 01°12' E 103°57'0 0.7
2017-Sep-21 16:59N 01°11' E 103°57'0 0.9
2017-Sep-21 16:30N 01°11' E 103°56'916.2
2017-Sep-21 15:58N 01°14' E 103°48'0 0.0
2017-Sep-21 15:28N 01°14' E 103°48'0 0.1
2017-Sep-21 14:58N 01°14' E 103°48'0 0.1
2017-Sep-21 14:28N 01°14' E 103°48'1015.0
2017-Sep-21 13:48N 01°12' E 103°58'0 1.0
2017-Sep-21 13:28N 01°12' E 103°58'1 1.7
2017-Sep-21 13:00N 01°11' E 103°57'1 1.8
2017-Sep-21 12:30N 01°11' E 103°57'1 1.1
2017-Sep-21 12:00N 01°10' E 103°56'915.9
2017-Sep-21 11:28N 01°14' E 103°48'0 0.1
2017-Sep-21 10:49N 01°14' E 103°48'0 0.6
2017-Sep-21 10:30N 01°14' E 103°49'3 6.3
2017-Sep-21 10:00N 01°13' E 103°51'611.1
2017-Sep-21 09:30N 01°15' E 103°57'3 6.4
2017-Sep-21 09:00N 01°15' E 103°60'2 5.0
2017-Sep-21 08:30N 01°13' E 103°59'2 3.5
2017-Sep-21 08:00N 01°12' E 103°58'2 3.1
2017-Sep-21 07:30N 01°11' E 103°56'1 1.6
2017-Sep-21 07:00N 01°12' E 103°56'2 4.0
2017-Sep-21 06:30N 01°12' E 103°58'5 9.0
2017-Sep-21 05:56N 01°13' E 104°03'4 9.0
2017-Sep-21 05:30N 01°13' E 104°07'7 3.8
2017-Sep-21 03:42N 01°14' E 104°00'1 7.5
2017-Sep-21 03:31N 01°13' E 103°59'3 6.0
2017-Sep-21 03:00N 01°11' E 103°57'2 3.5
2017-Sep-21 02:31N 01°10' E 103°55'3 6.5
2017-Sep-21 02:00N 01°07' E 103°54'2 4.0
2017-Sep-21 01:31N 01°05' E 103°53'0 0.4
2017-Sep-21 00:51N 01°05' E 103°54'0 0.0
2017-Sep-21 00:27N 01°05' E 103°54'0 0.0
2017-Sep-20 23:57N 01°05' E 103°54'0 0.0
2017-Sep-20 23:27N 01°05' E 103°54'0 0.0
2017-Sep-20 22:57N 01°05' E 103°54'0 0.0
2017-Sep-20 22:24N 01°05' E 103°54'0 0.0
2017-Sep-20 21:54N 01°05' E 103°54'0 0.0
2017-Sep-20 21:30N 01°05' E 103°54'0 0.0
2017-Sep-20 20:57N 01°05' E 103°54'0 0.0
2017-Sep-20 20:24N 01°05' E 103°54'0 0.0
2017-Sep-20 19:57N 01°05' E 103°54'0 0.0
2017-Sep-20 19:30N 01°05' E 103°54'0 0.0
2017-Sep-20 18:57N 01°05' E 103°54'0 0.0
2017-Sep-20 18:24N 01°05' E 103°54'0 0.0
2017-Sep-20 17:57N 01°05' E 103°54'0 0.0
2017-Sep-20 17:30N 01°05' E 103°54'0 0.0
2017-Sep-20 16:57N 01°05' E 103°54'0 0.0
2017-Sep-20 16:14N 01°05' E 103°54'0 0.0
2017-Sep-20 15:56N 01°05' E 103°54'0 0.0
2017-Sep-20 15:29N 01°05' E 103°54'0 0.0
2017-Sep-20 14:56N 01°05' E 103°54'0 0.0
2017-Sep-20 13:56N 01°05' E 103°54'0 0.0
2017-Sep-20 13:23N 01°05' E 103°54'0 0.0
2017-Sep-20 12:50N 01°05' E 103°54'0 0.0
2017-Sep-20 12:29N 01°05' E 103°54'0 0.0
2017-Sep-20 11:50N 01°05' E 103°54'0 0.0
2017-Sep-20 11:23N 01°05' E 103°54'0 0.0
2017-Sep-20 10:47N 01°05' E 103°54'0 0.0
2017-Sep-20 10:29N 01°05' E 103°54'0 0.0
2017-Sep-20 09:53N 01°05' E 103°54'0 0.0
2017-Sep-20 09:23N 01°05' E 103°54'0 0.0
2017-Sep-20 08:44N 01°05' E 103°54'0 0.0
2017-Sep-20 08:20N 01°05' E 103°54'0 0.0
2017-Sep-20 07:23N 01°05' E 103°54'0 0.0
2017-Sep-20 06:50N 01°05' E 103°54'0 0.0
2017-Sep-20 06:29N 01°05' E 103°54'0 0.0
2017-Sep-20 05:44N 01°05' E 103°54'0 0.0
2017-Sep-20 05:26N 01°05' E 103°54'0 0.0
2017-Sep-20 04:47N 01°05' E 103°54'0 0.0
2017-Sep-20 03:56N 01°05' E 103°54'0 0.0
2017-Sep-20 03:17N 01°05' E 103°54'0 0.0
2017-Sep-20 02:50N 01°05' E 103°54'0 0.0
2017-Sep-20 02:29N 01°05' E 103°54'0 0.0
2017-Sep-20 01:59N 01°05' E 103°54'0 0.0
2017-Sep-20 01:29N 01°05' E 103°54'0 0.0
2017-Sep-20 00:53N 01°05' E 103°54'0 0.0
2017-Sep-20 00:29N 01°05' E 103°54'0 0.0
2017-Sep-19 23:50N 01°05' E 103°54'0 0.0
2017-Sep-19 23:26N 01°05' E 103°54'0 0.0
2017-Sep-19 22:47N 01°05' E 103°54'0 0.0
2017-Sep-19 22:23N 01°05' E 103°54'0 0.0
2017-Sep-19 21:59N 01°05' E 103°54'0 0.0
2017-Sep-19 21:29N 01°05' E 103°54'0 0.0
2017-Sep-19 20:59N 01°05' E 103°54'0 0.0
2017-Sep-19 19:47N 01°05' E 103°54'0 0.0
2017-Sep-19 19:20N 01°05' E 103°54'0 0.0
2017-Sep-19 18:59N 01°05' E 103°54'0 0.0
2017-Sep-19 18:29N 01°05' E 103°54'0 0.0
2017-Sep-19 17:59N 01°05' E 103°54'0 0.0
2017-Sep-19 17:29N 01°05' E 103°54'0 0.0
2017-Sep-19 16:54N 01°05' E 103°54'0 0.0
2017-Sep-19 16:20N 01°05' E 103°54'0 0.0
2017-Sep-19 15:53N 01°05' E 103°54'0 0.0
2017-Sep-19 15:20N 01°05' E 103°54'0 0.0
2017-Sep-19 14:47N 01°05' E 103°54'0 0.0
2017-Sep-19 14:20N 01°05' E 103°54'0 0.0
2017-Sep-19 13:56N 01°05' E 103°54'0 0.0
2017-Sep-19 13:26N 01°05' E 103°54'0 0.0
2017-Sep-19 12:53N 01°05' E 103°54'0 0.0
2017-Sep-19 12:02N 01°05' E 103°54'0 0.0
2017-Sep-19 11:59N 01°05' E 103°54'0 0.0
2017-Sep-19 11:23N 01°05' E 103°54'0 0.0
2017-Sep-19 10:47N 01°05' E 103°54'0 0.0
2017-Sep-19 10:29N 01°05' E 103°54'0 0.0
2017-Sep-19 09:29N 01°05' E 103°54'0 0.0
2017-Sep-19 07:59N 01°05' E 103°54'0 0.0
2017-Sep-19 07:23N 01°05' E 103°54'0 0.0
2017-Sep-19 06:47N 01°05' E 103°54'0 0.0
2017-Sep-19 06:29N 01°05' E 103°54'0 0.0
2017-Sep-19 05:59N 01°05' E 103°54'0 0.0
2017-Sep-19 05:26N 01°05' E 103°54'0 0.0
2017-Sep-19 04:59N 01°05' E 103°54'0 0.0
2017-Sep-19 04:20N 01°05' E 103°54'0 0.0
2017-Sep-19 03:58N 01°05' E 103°54'0 0.0
2017-Sep-19 03:16N 01°05' E 103°54'0 0.0
2017-Sep-19 02:13N 01°05' E 103°54'0 0.0
2017-Sep-19 01:55N 01°05' E 103°54'0 0.0
2017-Sep-19 01:28N 01°05' E 103°54'0 0.0
2017-Sep-19 00:37N 01°05' E 103°54'0 0.0
2017-Sep-19 00:25N 01°05' E 103°54'0 0.0
2017-Sep-18 23:13N 01°05' E 103°54'0 0.0
2017-Sep-18 22:58N 01°05' E 103°54'0 0.0
2017-Sep-18 22:25N 01°05' E 103°54'0 0.0
2017-Sep-18 21:46N 01°05' E 103°54'0 0.0
2017-Sep-18 21:22N 01°05' E 103°54'0 0.0
2017-Sep-18 20:40N 01°05' E 103°54'0 0.0
2017-Sep-18 20:28N 01°05' E 103°54'0 0.0
2017-Sep-18 19:58N 01°05' E 103°54'0 0.0
2017-Sep-18 19:25N 01°05' E 103°54'0 0.0
2017-Sep-18 18:52N 01°05' E 103°54'0 0.0
2017-Sep-18 18:16N 01°05' E 103°54'0 0.0
2017-Sep-18 17:55N 01°05' E 103°54'0 0.0
2017-Sep-18 17:25N 01°05' E 103°54'0 0.0
2017-Sep-18 16:58N 01°05' E 103°54'0 0.0
2017-Sep-18 16:16N 01°05' E 103°54'0 0.0
2017-Sep-18 15:58N 01°05' E 103°54'0 0.0
2017-Sep-18 15:10N 01°05' E 103°54'0 0.0
2017-Sep-18 14:55N 01°05' E 103°54'0 0.0
2017-Sep-18 14:10N 01°05' E 103°54'0 0.0
2017-Sep-18 13:55N 01°05' E 103°54'0 0.0
2017-Sep-18 13:28N 01°05' E 103°54'0 0.0
2017-Sep-18 12:58N 01°05' E 103°54'0 0.0
2017-Sep-18 12:22N 01°05' E 103°54'0 0.0
2017-Sep-18 11:58N 01°05' E 103°54'0 0.0
2017-Sep-18 11:28N 01°05' E 103°54'0 0.0
2017-Sep-18 10:58N 01°05' E 103°54'0 0.0
2017-Sep-18 10:22N 01°05' E 103°54'0 0.0
2017-Sep-18 09:58N 01°05' E 103°54'0 0.0
2017-Sep-18 08:58N 01°05' E 103°54'0 0.0
2017-Sep-18 06:43N 01°05' E 103°54'0 0.0
2017-Sep-18 06:25N 01°05' E 103°54'0 0.0
2017-Sep-18 05:58N 01°05' E 103°54'0 0.0
2017-Sep-18 05:28N 01°05' E 103°54'0 0.0
2017-Sep-18 04:16N 01°05' E 103°54'0 0.0
2017-Sep-18 03:40N 01°05' E 103°54'0 0.0
2017-Sep-18 03:19N 01°05' E 103°54'0 0.0
2017-Sep-18 02:37N 01°05' E 103°54'0 0.0
2017-Sep-18 02:22N 01°05' E 103°54'0 0.0
2017-Sep-18 01:49N 01°05' E 103°54'0 0.0
2017-Sep-18 01:28N 01°05' E 103°54'0 0.0
2017-Sep-17 23:10N 01°05' E 103°54'0 0.0
2017-Sep-17 22:01N 01°05' E 103°54'0 0.0
2017-Sep-17 21:49N 01°05' E 103°54'0 0.0
2017-Sep-17 21:10N 01°05' E 103°54'0 0.0
2017-Sep-17 20:55N 01°05' E 103°54'0 0.0
2017-Sep-17 20:13N 01°05' E 103°54'0 0.0
2017-Sep-17 19:58N 01°05' E 103°54'0 0.0
2017-Sep-17 19:19N 01°05' E 103°54'0 0.0
2017-Sep-17 18:58N 01°05' E 103°54'0 0.0
2017-Sep-17 18:25N 01°05' E 103°54'0 0.0
2017-Sep-17 17:37N 01°05' E 103°54'0 0.0
2017-Sep-17 17:19N 01°05' E 103°54'0 0.0
2017-Sep-17 16:40N 01°05' E 103°54'0 0.0
2017-Sep-17 15:52N 01°05' E 103°54'0 0.0
2017-Sep-17 15:25N 01°05' E 103°54'0 0.0
2017-Sep-17 15:00N 01°05' E 103°54'0 0.0
2017-Sep-17 14:12N 01°05' E 103°54'0 0.0
2017-Sep-17 13:54N 01°05' E 103°54'0 0.0
2017-Sep-17 13:24N 01°05' E 103°54'0 0.0
2017-Sep-17 12:54N 01°05' E 103°54'0 0.0
2017-Sep-17 12:24N 01°05' E 103°54'0 0.0
2017-Sep-17 11:18N 01°05' E 103°54'0 0.0
2017-Sep-17 10:48N 01°05' E 103°54'0 0.0
2017-Sep-17 10:24N 01°05' E 103°54'0 0.0
2017-Sep-17 07:27N 01°05' E 103°54'0 0.0
2017-Sep-17 06:54N 01°05' E 103°54'0 0.0
2017-Sep-17 05:21N 01°05' E 103°54'0 0.0
2017-Sep-17 04:54N 01°05' E 103°54'0 0.0
2017-Sep-17 04:15N 01°05' E 103°54'0 0.0
2017-Sep-17 03:48N 01°05' E 103°54'0 0.0
2017-Sep-17 03:09N 01°05' E 103°54'0 0.0
2017-Sep-17 02:57N 01°05' E 103°54'0 0.0
2017-Sep-17 01:18N 01°05' E 103°54'0 0.0
2017-Sep-17 00:54N 01°05' E 103°54'0 0.0
2017-Sep-17 00:03N 01°05' E 103°54'0 0.0
2017-Sep-16 23:54N 01°05' E 103°54'0 0.0
2017-Sep-16 23:30N 01°05' E 103°54'0 0.0
2017-Sep-16 22:54N 01°05' E 103°54'0 0.0
2017-Sep-16 22:27N 01°05' E 103°54'0 0.0
2017-Sep-16 21:57N 01°05' E 103°54'0 0.0
2017-Sep-16 20:42N 01°05' E 103°54'0 0.0
2017-Sep-16 20:27N 01°05' E 103°54'0 0.0
2017-Sep-16 19:39N 01°05' E 103°54'0 0.0
2017-Sep-16 19:21N 01°05' E 103°54'0 0.0
2017-Sep-16 18:03N 01°05' E 103°54'0 0.0
2017-Sep-16 17:33N 01°05' E 103°54'0 0.0
2017-Sep-16 17:15N 01°05' E 103°54'0 0.0
2017-Sep-16 16:51N 01°05' E 103°54'0 0.0
2017-Sep-16 16:21N 01°05' E 103°54'0 0.0
2017-Sep-16 15:57N 01°05' E 103°54'0 0.0
2017-Sep-16 15:30N 01°05' E 103°54'0 0.0
2017-Sep-16 15:00N 01°05' E 103°54'0 0.0
2017-Sep-16 14:24N 01°05' E 103°54'0 0.0
2017-Sep-16 13:57N 01°05' E 103°54'0 0.0
2017-Sep-16 13:27N 01°05' E 103°54'0 0.0
2017-Sep-16 12:57N 01°05' E 103°54'0 0.0
2017-Sep-16 12:24N 01°05' E 103°54'0 0.0
2017-Sep-16 11:54N 01°05' E 103°54'0 0.0
2017-Sep-16 11:27N 01°05' E 103°54'0 0.0
2017-Sep-16 10:57N 01°05' E 103°54'0 0.0
2017-Sep-16 10:27N 01°05' E 103°54'0 0.0
2017-Sep-16 09:51N 01°05' E 103°54'0 0.0
2017-Sep-16 09:27N 01°05' E 103°54'0 0.0
2017-Sep-16 08:51N 01°05' E 103°54'0 0.0
2017-Sep-16 08:30N 01°05' E 103°54'0 0.0
2017-Sep-16 07:54N 01°05' E 103°54'0 0.0
2017-Sep-16 07:18N 01°05' E 103°54'0 0.0
2017-Sep-16 06:57N 01°05' E 103°54'0 0.0
2017-Sep-16 06:27N 01°05' E 103°54'0 0.0
2017-Sep-16 05:57N 01°05' E 103°54'0 0.0
2017-Sep-16 05:21N 01°05' E 103°54'0 0.0
2017-Sep-16 04:45N 01°05' E 103°54'0 0.0
2017-Sep-16 03:39N 01°05' E 103°54'0 0.0
2017-Sep-16 03:09N 01°05' E 103°54'0 0.0
2017-Sep-16 02:56N 01°05' E 103°54'0 0.0
2017-Sep-16 02:30N 01°05' E 103°54'0 0.0
2017-Sep-16 01:50N 01°05' E 103°54'0 0.0
2017-Sep-16 01:26N 01°05' E 103°54'0 0.0
2017-Sep-15 23:29N 01°05' E 103°54'0 0.0
2017-Sep-15 22:47N 01°05' E 103°54'0 0.0
2017-Sep-15 22:17N 01°05' E 103°54'0 0.0
2017-Sep-15 21:47N 01°05' E 103°54'0 0.0
2017-Sep-15 21:20N 01°05' E 103°54'0 0.0
2017-Sep-15 20:56N 01°05' E 103°54'0 0.0
2017-Sep-15 19:41N 01°05' E 103°54'0 0.0
2017-Sep-15 19:29N 01°05' E 103°54'0 0.0
2017-Sep-15 18:08N 01°05' E 103°54'0 0.0
2017-Sep-15 17:53N 01°05' E 103°54'0 0.0
2017-Sep-15 17:23N 01°05' E 103°54'0 0.0
2017-Sep-15 16:56N 01°05' E 103°54'0 0.0
2017-Sep-15 15:44N 01°05' E 103°54'0 0.0
2017-Sep-15 15:17N 01°05' E 103°54'0 0.0
2017-Sep-15 14:05N 01°05' E 103°54'0 0.0
2017-Sep-15 13:50N 01°05' E 103°54'0 0.0
2017-Sep-15 13:23N 01°05' E 103°54'0 0.0
2017-Sep-15 12:41N 01°05' E 103°54'0 0.0
2017-Sep-15 11:56N 01°05' E 103°54'0 0.0
2017-Sep-15 11:26N 01°05' E 103°54'0 0.0
2017-Sep-15 10:56N 01°05' E 103°54'0 0.0
2017-Sep-15 10:02N 01°05' E 103°54'0 0.0
2017-Sep-15 09:56N 01°05' E 103°54'0 0.0
2017-Sep-15 09:23N 01°05' E 103°54'0 0.0
2017-Sep-15 08:53N 01°05' E 103°54'0 0.0
2017-Sep-15 07:02N 01°05' E 103°54'0 0.0
2017-Sep-15 06:50N 01°05' E 103°54'0 0.0
2017-Sep-15 06:26N 01°05' E 103°54'0 0.0
2017-Sep-15 05:05N 01°05' E 103°54'0 0.0
2017-Sep-15 04:59N 01°05' E 103°54'0 0.0
2017-Sep-15 04:23N 01°05' E 103°54'0 0.0
2017-Sep-15 03:29N 01°05' E 103°54'0 0.0
2017-Sep-15 02:53N 01°05' E 103°54'0 0.0
2017-Sep-15 02:29N 01°05' E 103°54'0 0.0
2017-Sep-15 01:56N 01°05' E 103°54'0 0.0
2017-Sep-15 01:29N 01°05' E 103°54'0 0.0
2017-Sep-15 00:47N 01°05' E 103°54'0 0.0
2017-Sep-13 15:22N 01°05' E 103°54'0 0.0
2017-Sep-13 14:49N 01°05' E 103°54'0 0.0
2017-Sep-13 14:25N 01°05' E 103°54'0 0.0
2017-Sep-13 11:16N 01°05' E 103°54'0 0.0
2017-Sep-13 10:04N 01°05' E 103°54'0 0.0
2017-Sep-13 09:58N 01°05' E 103°54'0 0.0
2017-Sep-13 08:22N 01°05' E 103°54'0 0.0
2017-Sep-13 07:55N 01°05' E 103°54'0 0.0
2017-Sep-13 07:04N 01°05' E 103°54'0 0.0
2017-Sep-13 06:37N 01°05' E 103°54'0 0.0
2017-Sep-13 06:28N 01°05' E 103°54'0 0.0
2017-Sep-13 05:55N 01°05' E 103°54'0 0.0
2017-Sep-13 05:22N 01°05' E 103°54'0 0.0
2017-Sep-13 04:49N 01°05' E 103°54'0 0.0
2017-Sep-13 04:28N 01°05' E 103°54'0 0.0
2017-Sep-13 03:55N 01°05' E 103°54'0 0.0
2017-Sep-13 03:16N 01°05' E 103°54'0 0.0
2017-Sep-13 02:58N 01°05' E 103°54'0 0.0
2017-Sep-13 02:28N 01°05' E 103°54'0 0.0
2017-Sep-13 01:52N 01°05' E 103°54'0 0.0
2017-Sep-13 01:31N 01°05' E 103°54'0 0.0
2017-Sep-13 00:45N 01°05' E 103°54'0 0.0
2017-Sep-13 00:15N 01°05' E 103°54'0 0.0
2017-Sep-12 23:51N 01°05' E 103°54'0 0.0
2017-Sep-12 23:30N 01°05' E 103°54'0 0.0
2017-Sep-12 23:00N 01°05' E 103°54'0 0.0
2017-Sep-12 22:27N 01°05' E 103°54'0 0.0
2017-Sep-12 21:57N 01°05' E 103°54'0 0.0
2017-Sep-12 21:03N 01°05' E 103°54'0 0.0
2017-Sep-12 20:48N 01°05' E 103°54'0 0.0
2017-Sep-12 20:27N 01°05' E 103°54'0 0.0
2017-Sep-12 19:51N 01°05' E 103°54'0 0.0
2017-Sep-12 19:24N 01°05' E 103°54'0 0.0
2017-Sep-12 18:54N 01°05' E 103°54'0 0.0
2017-Sep-12 18:30N 01°05' E 103°54'0 0.0
2017-Sep-12 17:45N 01°05' E 103°54'0 0.0
2017-Sep-12 17:30N 01°05' E 103°54'0 0.0
2017-Sep-12 16:18N 01°05' E 103°54'0 0.0
2017-Sep-12 15:57N 01°05' E 103°54'0 0.0
2017-Sep-12 15:30N 01°05' E 103°54'0 0.0
2017-Sep-12 14:42N 01°05' E 103°54'0 0.0
2017-Sep-12 14:27N 01°05' E 103°54'0 0.0
2017-Sep-12 13:33N 01°05' E 103°54'0 0.0
2017-Sep-12 13:30N 01°05' E 103°54'0 0.0
2017-Sep-12 12:48N 01°05' E 103°54'0 0.0
2017-Sep-12 12:30N 01°05' E 103°54'0 0.0
2017-Sep-12 11:57N 01°05' E 103°54'0 0.0
2017-Sep-12 11:30N 01°05' E 103°54'0 0.0
2017-Sep-12 10:54N 01°05' E 103°54'0 0.0
2017-Sep-12 10:24N 01°05' E 103°54'0 0.0
2017-Sep-12 09:57N 01°05' E 103°54'0 0.0
2017-Sep-12 09:21N 01°05' E 103°54'0 0.0
2017-Sep-12 08:45N 01°05' E 103°54'0 0.0
2017-Sep-12 08:30N 01°05' E 103°54'0 0.0
2017-Sep-12 07:48N 01°05' E 103°54'0 0.0
2017-Sep-12 07:30N 01°05' E 103°54'0 0.0
2017-Sep-12 06:54N 01°05' E 103°54'0 0.0
2017-Sep-12 06:18N 01°05' E 103°54'0 0.0
2017-Sep-12 05:54N 01°05' E 103°54'0 0.0
2017-Sep-12 05:15N 01°05' E 103°54'0 0.0
2017-Sep-12 04:57N 01°05' E 103°54'0 0.0
2017-Sep-12 04:24N 01°05' E 103°54'0 0.0
2017-Sep-12 03:57N 01°05' E 103°54'0 0.0
2017-Sep-12 03:27N 01°05' E 103°54'0 0.0
2017-Sep-12 02:57N 01°05' E 103°54'0 0.0
2017-Sep-12 02:24N 01°05' E 103°54'0 0.0
2017-Sep-12 01:57N 01°05' E 103°54'  

Dump ship's entire track history